createdAt,value
2023-08-11T00:02:06.269Z,2.60
2023-08-11T00:04:33.029Z,2.20
2023-08-11T00:06:59.689Z,2.30
2023-08-11T00:09:27.074Z,2.50
2023-08-11T00:11:53.862Z,2.30
2023-08-11T00:14:20.564Z,2.50
2023-08-11T00:16:47.392Z,3.10
2023-08-11T00:19:14.805Z,2.90
2023-08-11T00:21:42.031Z,2.40
2023-08-11T00:24:08.683Z,2.40
2023-08-11T00:26:35.707Z,2.80
2023-08-11T00:29:03.407Z,3.00
2023-08-11T00:31:30.193Z,3.20
2023-08-11T00:33:57.191Z,2.50
2023-08-11T00:36:24.616Z,2.40
2023-08-11T00:38:51.313Z,2.90
2023-08-11T00:41:18.088Z,3.00
2023-08-11T00:43:44.774Z,2.90
2023-08-11T00:46:13.320Z,2.70
2023-08-11T00:48:43.561Z,2.60
2023-08-11T00:51:14.384Z,2.80
2023-08-11T00:53:43.049Z,3.20
2023-08-11T00:56:10.717Z,3.00
2023-08-11T00:58:38.102Z,3.10
2023-08-11T01:01:05.246Z,2.90
2023-08-11T01:03:34.986Z,3.00
2023-08-11T01:06:04.839Z,3.00
2023-08-11T01:08:53.223Z,2.80
2023-08-11T01:11:59.946Z,3.40
2023-08-11T01:14:41.315Z,2.50
2023-08-11T01:17:11.785Z,3.40
2023-08-11T01:19:38.921Z,3.50
2023-08-11T01:22:12.278Z,3.40
2023-08-11T01:24:41.307Z,3.50
2023-08-11T01:27:08.252Z,3.20
2023-08-11T01:29:35.076Z,3.40
2023-08-11T01:32:03.831Z,2.90
2023-08-11T01:34:30.566Z,3.00
2023-08-11T01:37:01.555Z,3.00
2023-08-11T01:39:29.173Z,2.70
2023-08-11T01:41:56.439Z,2.70
2023-08-11T01:44:25.838Z,3.00
2023-08-11T01:46:56.390Z,2.50
2023-08-11T01:49:25.374Z,2.90
2023-08-11T01:51:52.389Z,2.60
2023-08-11T01:54:20.477Z,2.30
2023-08-11T01:56:47.690Z,2.10
2023-08-11T01:59:15.903Z,2.30
2023-08-11T02:01:44.275Z,2.20
2023-08-11T02:04:11.558Z,2.20
2023-08-11T02:06:38.616Z,2.20
2023-08-11T02:09:08.673Z,2.00
2023-08-11T02:11:37.744Z,2.30
2023-08-11T02:14:05.756Z,2.10
2023-08-11T02:16:34.116Z,1.90
2023-08-11T02:19:00.818Z,2.40
2023-08-11T02:21:28.903Z,2.40
2023-08-11T02:23:55.779Z,2.30
2023-08-11T02:26:23.048Z,3.00
2023-08-11T02:28:50.047Z,2.30
2023-08-11T02:31:18.529Z,2.60
2023-08-11T02:33:45.316Z,2.20
2023-08-11T02:36:11.994Z,2.20
2023-08-11T02:38:39.052Z,2.50
2023-08-11T02:41:05.828Z,3.00
2023-08-11T02:43:37.403Z,2.90
2023-08-11T02:46:07.727Z,2.60
2023-08-11T02:48:34.506Z,2.50
2023-08-11T02:51:04.074Z,2.50
2023-08-11T02:53:31.959Z,2.80
2023-08-11T02:56:01.710Z,2.50
2023-08-11T02:58:28.814Z,2.30
2023-08-11T03:00:55.611Z,2.70
2023-08-11T03:03:22.424Z,2.00
2023-08-11T03:05:49.483Z,2.50
2023-08-11T03:08:16.273Z,2.50
2023-08-11T03:10:55.461Z,2.20
2023-08-11T03:13:24.231Z,2.10
2023-08-11T03:15:52.639Z,2.50
2023-08-11T03:18:20.069Z,2.40
2023-08-11T03:20:47.304Z,2.40
2023-08-11T03:23:14.439Z,2.60
2023-08-11T03:25:41.175Z,2.50
2023-08-11T03:28:08.142Z,2.50
2023-08-11T03:30:38.650Z,2.50
2023-08-11T03:33:05.414Z,2.40
2023-08-11T03:38:08.035Z,2.80
2023-08-11T03:40:35.015Z,2.50
2023-08-11T03:43:01.834Z,2.70
2023-08-11T03:45:29.609Z,2.80
2023-08-11T03:47:56.413Z,3.90
2023-08-11T03:50:24.244Z,3.20
2023-08-11T03:52:51.110Z,2.90
2023-08-11T03:55:18.346Z,2.70
2023-08-11T03:57:46.424Z,2.70
2023-08-11T04:00:15.721Z,2.60
2023-08-11T04:02:44.391Z,2.70
2023-08-11T04:05:13.397Z,2.60
2023-08-11T04:07:40.345Z,3.10
2023-08-11T04:10:11.121Z,2.80
2023-08-11T04:12:38.268Z,3.40
2023-08-11T04:15:06.392Z,3.60
2023-08-11T04:17:34.289Z,4.10
2023-08-11T04:20:01.433Z,4.30
2023-08-11T04:22:38.730Z,3.60
2023-08-11T04:25:09.863Z,4.10
2023-08-11T04:27:39.792Z,4.30
2023-08-11T04:30:08.556Z,4.80
2023-08-11T04:32:35.438Z,4.60
2023-08-11T04:35:05.643Z,5.50
2023-08-11T04:37:33.632Z,6.10
2023-08-11T04:40:05.078Z,6.30
2023-08-11T04:42:32.156Z,5.90
2023-08-11T04:44:59.261Z,5.80
2023-08-11T04:47:26.128Z,6.00
2023-08-11T04:49:53.211Z,5.20
2023-08-11T04:52:20.166Z,6.00
2023-08-11T04:54:46.756Z,6.00
2023-08-11T04:57:13.994Z,5.40
2023-08-11T04:59:41.527Z,6.60
2023-08-11T05:02:08.404Z,5.90
2023-08-11T05:04:35.534Z,5.20
2023-08-11T05:07:02.325Z,5.20
2023-08-11T05:09:28.955Z,5.50
2023-08-11T05:11:55.838Z,4.90
2023-08-11T05:14:23.681Z,5.10
2023-08-11T05:16:50.429Z,5.00
2023-08-11T05:19:17.208Z,5.30
2023-08-11T05:21:43.939Z,5.80
2023-08-11T05:24:11.263Z,4.50
2023-08-11T05:26:38.830Z,5.10
2023-08-11T05:29:07.202Z,4.80
2023-08-11T05:31:34.862Z,4.00
2023-08-11T05:34:01.610Z,4.10
2023-08-11T05:36:28.313Z,4.00
2023-08-11T05:38:55.378Z,3.60
2023-08-11T05:41:22.481Z,4.40
2023-08-11T05:43:49.147Z,4.00
2023-08-11T05:46:15.985Z,3.60
2023-08-11T05:48:48.489Z,4.10
2023-08-11T05:51:16.576Z,3.20
2023-08-11T05:53:43.814Z,3.30
2023-08-11T05:56:10.573Z,3.20
2023-08-11T05:58:37.259Z,3.60
2023-08-11T06:01:04.229Z,3.30
2023-08-11T06:03:31.387Z,3.50
2023-08-11T06:06:02.229Z,3.60
2023-08-11T06:08:29.000Z,3.50
2023-08-11T06:10:57.080Z,3.40
2023-08-11T06:13:24.231Z,4.20
2023-08-11T06:15:51.091Z,3.30
2023-08-11T06:18:18.444Z,3.60
2023-08-11T06:20:45.573Z,3.70
2023-08-11T06:23:12.644Z,3.00
2023-08-11T06:25:39.682Z,3.40
2023-08-11T06:28:07.762Z,3.00
2023-08-11T06:30:34.895Z,2.90
2023-08-11T06:33:01.852Z,3.20
2023-08-11T06:35:28.568Z,2.90
2023-08-11T06:37:55.282Z,2.90
2023-08-11T06:40:22.013Z,3.00
2023-08-11T06:42:49.480Z,2.50
2023-08-11T06:45:16.132Z,2.90
2023-08-11T06:47:42.784Z,2.20
2023-08-11T06:50:09.989Z,2.60
2023-08-11T06:52:36.710Z,2.50
2023-08-11T06:55:03.824Z,3.10
2023-08-11T06:57:30.754Z,2.30
2023-08-11T06:59:58.233Z,2.40
2023-08-11T07:02:25.052Z,2.70
2023-08-11T07:04:51.789Z,2.50
2023-08-11T07:07:18.412Z,4.00
2023-08-11T07:09:45.123Z,3.10
2023-08-11T07:12:12.192Z,2.70
2023-08-11T07:14:39.774Z,2.20
2023-08-11T07:17:06.799Z,3.00
2023-08-11T07:19:33.753Z,2.10
2023-08-11T07:22:01.054Z,2.60
2023-08-11T07:24:27.809Z,2.40
2023-08-11T07:26:54.519Z,2.30
2023-08-11T07:29:21.149Z,2.50
2023-08-11T07:31:47.793Z,2.40
2023-08-11T07:34:14.526Z,1.90
2023-08-11T07:36:41.423Z,1.70
2023-08-11T07:39:21.892Z,2.30
2023-08-11T07:41:53.037Z,2.00
2023-08-11T07:44:19.856Z,1.70
2023-08-11T07:46:46.647Z,1.60
2023-08-11T07:49:13.636Z,1.40
2023-08-11T07:51:41.527Z,1.90
2023-08-11T07:54:08.350Z,1.70
2023-08-11T07:56:35.198Z,2.30
2023-08-11T07:59:02.633Z,2.30
2023-08-11T08:01:30.405Z,2.20
2023-08-11T08:04:01.530Z,1.80
2023-08-11T08:06:28.302Z,1.80
2023-08-11T08:08:55.178Z,2.00
2023-08-11T08:11:21.922Z,2.60
2023-08-11T08:13:48.662Z,2.90
2023-08-11T08:16:15.605Z,2.80
2023-08-11T08:18:42.762Z,3.00
2023-08-11T08:21:12.385Z,3.00
2023-08-11T08:23:39.242Z,3.00
2023-08-11T08:26:05.928Z,2.50
2023-08-11T08:28:34.425Z,2.10
2023-08-11T08:31:01.789Z,2.40
2023-08-11T08:33:28.638Z,2.20
2023-08-11T08:36:03.035Z,2.00
2023-08-11T08:38:29.890Z,2.00
2023-08-11T08:40:58.458Z,2.10
2023-08-11T08:43:26.026Z,2.50
2023-08-11T08:45:53.732Z,2.30
2023-08-11T08:48:26.486Z,2.50
2023-08-11T08:50:54.399Z,2.10
2023-08-11T08:53:21.568Z,2.00
2023-08-11T08:55:48.326Z,2.30
2023-08-11T08:58:16.654Z,2.20
2023-08-11T09:00:43.880Z,2.10
2023-08-11T09:03:11.993Z,2.40
2023-08-11T09:05:39.078Z,2.70
2023-08-11T09:08:06.279Z,2.60
2023-08-11T09:10:37.197Z,1.80
2023-08-11T09:13:04.301Z,2.20
2023-08-11T09:15:31.556Z,2.40
2023-08-11T09:17:59.295Z,1.80
2023-08-11T09:20:27.556Z,1.90
2023-08-11T09:22:54.356Z,1.60
2023-08-11T09:25:21.079Z,2.00
2023-08-11T09:30:34.661Z,1.40
2023-08-11T09:33:04.796Z,1.50
2023-08-11T09:35:33.746Z,1.50
2023-08-11T09:38:02.040Z,1.60
2023-08-11T09:40:30.187Z,1.20
2023-08-11T09:43:00.562Z,1.30
2023-08-11T09:45:31.463Z,1.10
2023-08-11T09:47:59.528Z,1.40
2023-08-11T09:50:29.373Z,1.60
2023-08-11T09:53:00.344Z,1.70
2023-08-11T09:55:31.136Z,1.40
2023-08-11T09:58:00.982Z,1.40
2023-08-11T10:00:31.929Z,1.00
2023-08-11T10:03:06.450Z,1.10
2023-08-11T10:05:40.840Z,1.20
2023-08-11T10:08:15.273Z,1.20
2023-08-11T10:10:44.236Z,1.20
2023-08-11T10:13:27.809Z,1.00
2023-08-11T10:15:57.228Z,1.10
2023-08-11T10:18:26.051Z,1.40
2023-08-11T10:20:58.017Z,1.10
2023-08-11T10:23:28.864Z,1.10
2023-08-11T10:25:57.083Z,1.30
2023-08-11T10:28:25.491Z,1.10
2023-08-11T10:31:06.568Z,0.90
2023-08-11T10:33:35.284Z,0.90
2023-08-11T10:36:03.873Z,1.20
2023-08-11T10:38:34.221Z,1.10
2023-08-11T10:41:05.157Z,1.30
2023-08-11T10:43:44.388Z,1.00
2023-08-11T10:46:28.489Z,1.30
2023-08-11T10:49:06.003Z,1.10
2023-08-11T10:51:39.006Z,1.00
2023-08-11T10:54:12.360Z,1.10
2023-08-11T10:56:42.764Z,1.30
2023-08-11T10:59:19.090Z,1.40
2023-08-11T11:01:49.813Z,1.30
2023-08-11T11:04:19.497Z,1.20
2023-08-11T11:06:49.809Z,1.20
2023-08-11T11:09:20.521Z,1.30
2023-08-11T11:11:52.500Z,1.10
2023-08-11T11:14:20.909Z,1.40
2023-08-11T11:16:49.215Z,1.10
2023-08-11T11:19:17.365Z,1.30
2023-08-11T11:21:46.841Z,0.80
2023-08-11T11:24:16.454Z,0.90
2023-08-11T11:26:44.538Z,1.20
2023-08-11T11:29:13.312Z,1.60
2023-08-11T11:31:42.140Z,1.20
2023-08-11T11:34:10.380Z,1.20
2023-08-11T11:36:38.580Z,1.30
2023-08-11T11:39:08.931Z,1.00
2023-08-11T11:41:37.013Z,1.10
2023-08-11T11:44:05.506Z,1.10
2023-08-11T11:46:34.571Z,1.00
2023-08-11T11:49:12.500Z,1.20
2023-08-11T11:51:44.378Z,1.20
2023-08-11T11:54:12.390Z,1.00
2023-08-11T11:56:47.141Z,1.10
2023-08-11T11:59:22.681Z,1.30
2023-08-11T12:01:51.586Z,1.30
2023-08-11T12:04:19.876Z,1.40
2023-08-11T12:06:47.974Z,1.60
2023-08-11T12:09:16.016Z,1.30
2023-08-11T12:11:44.247Z,1.40
2023-08-11T12:14:13.146Z,1.10
2023-08-11T12:16:45.289Z,1.20
2023-08-11T12:19:13.798Z,1.40
2023-08-11T12:21:43.837Z,1.30
2023-08-11T12:24:14.510Z,1.40
2023-08-11T12:26:42.849Z,1.60
2023-08-11T12:29:10.909Z,1.20
2023-08-11T12:31:39.441Z,1.20
2023-08-11T12:34:07.469Z,1.30
2023-08-11T12:36:35.568Z,1.40
2023-08-11T12:39:04.396Z,1.40
2023-08-11T12:41:32.449Z,1.30
2023-08-11T12:44:00.503Z,1.20
2023-08-11T12:46:30.707Z,1.40
2023-08-11T12:48:58.789Z,1.30
2023-08-11T12:51:26.933Z,1.20
2023-08-11T12:53:54.934Z,1.30
2023-08-11T12:56:23.018Z,1.40
2023-08-11T12:58:51.101Z,1.60
2023-08-11T13:01:19.566Z,1.30
2023-08-11T13:03:47.894Z,1.50
2023-08-11T13:06:16.272Z,1.60
2023-08-11T13:08:44.754Z,1.70
2023-08-11T13:11:12.865Z,1.60
2023-08-11T13:13:40.825Z,1.30
2023-08-11T13:16:09.607Z,1.50
2023-08-11T13:18:37.749Z,1.70
2023-08-11T13:21:05.834Z,1.30
2023-08-11T13:23:34.780Z,1.50
2023-08-11T13:26:03.916Z,1.30
2023-08-11T13:28:32.054Z,1.60
2023-08-11T13:31:00.568Z,1.50
2023-08-11T13:33:28.555Z,1.40
2023-08-11T13:35:56.550Z,1.30
2023-08-11T13:38:27.583Z,1.20
2023-08-11T13:40:58.809Z,1.40
2023-08-11T13:43:27.248Z,1.60
2023-08-11T13:45:59.430Z,1.40
2023-08-11T13:48:31.800Z,1.50
2023-08-11T13:51:00.026Z,1.50
2023-08-11T13:53:28.111Z,1.40
2023-08-11T13:55:56.204Z,1.40
2023-08-11T13:58:25.040Z,1.50
2023-08-11T14:00:53.233Z,1.90
2023-08-11T14:03:21.424Z,1.50
2023-08-11T14:05:49.551Z,1.40
2023-08-11T14:08:17.696Z,1.20
2023-08-11T14:10:45.833Z,1.30
2023-08-11T14:13:14.003Z,1.30
2023-08-11T14:15:42.708Z,1.40
2023-08-11T14:18:11.702Z,1.20
2023-08-11T14:20:39.986Z,1.80
2023-08-11T14:23:08.250Z,1.10
2023-08-11T14:25:37.521Z,1.10
2023-08-11T14:28:05.718Z,2.50
2023-08-11T14:30:34.422Z,1.70
2023-08-11T14:33:02.604Z,1.20
2023-08-11T14:35:30.906Z,1.10
2023-08-11T14:37:59.854Z,1.50
2023-08-11T14:40:28.130Z,1.30
2023-08-11T14:42:56.303Z,1.40
2023-08-11T14:45:24.972Z,1.40
2023-08-11T14:47:53.168Z,1.50
2023-08-11T14:50:21.347Z,1.20
2023-08-11T14:52:49.480Z,1.20
2023-08-11T14:55:18.285Z,1.40
2023-08-11T14:57:46.376Z,1.50
2023-08-11T15:00:15.210Z,1.50
2023-08-11T15:02:43.455Z,1.40
2023-08-11T15:05:11.646Z,1.50
2023-08-11T15:07:39.762Z,1.10
2023-08-11T15:10:08.779Z,1.60
2023-08-11T15:12:36.912Z,1.50
2023-08-11T15:15:06.268Z,1.30
2023-08-11T15:17:34.452Z,1.40
2023-08-11T15:20:03.641Z,1.50
2023-08-11T15:22:32.177Z,1.50
2023-08-11T15:25:02.744Z,1.20
2023-08-11T15:27:34.155Z,1.40
2023-08-11T15:30:03.732Z,1.70
2023-08-11T15:32:31.930Z,1.80
2023-08-11T15:35:00.013Z,1.60
2023-08-11T15:37:28.058Z,1.60
2023-08-11T15:39:56.948Z,1.90
2023-08-11T15:42:24.990Z,1.60
2023-08-11T15:44:53.031Z,1.80
2023-08-11T15:47:21.339Z,1.50
2023-08-11T15:49:51.879Z,2.30
2023-08-11T15:52:24.281Z,3.30
2023-08-11T15:54:52.397Z,1.90
2023-08-11T15:57:20.434Z,2.30
2023-08-11T15:59:48.614Z,1.70
2023-08-11T16:02:16.772Z,1.60
2023-08-11T16:04:44.911Z,1.70
2023-08-11T16:07:13.428Z,2.00
2023-08-11T16:09:41.544Z,2.00
2023-08-11T16:12:09.767Z,1.90
2023-08-11T16:14:38.178Z,1.40
2023-08-11T16:17:06.576Z,1.60
2023-08-11T16:19:36.312Z,1.80
2023-08-11T16:22:04.347Z,1.60
2023-08-11T16:24:32.423Z,1.90
2023-08-11T16:27:00.568Z,1.50
2023-08-11T16:29:28.649Z,1.70
2023-08-11T16:31:56.719Z,1.80
2023-08-11T16:34:25.226Z,1.80
2023-08-11T16:36:54.356Z,1.60
2023-08-11T16:39:22.448Z,1.50
2023-08-11T16:41:50.649Z,1.30
2023-08-11T16:44:18.716Z,1.60
2023-08-11T16:46:47.490Z,1.40
2023-08-11T16:49:15.524Z,1.90
2023-08-11T16:51:43.544Z,1.60
2023-08-11T16:54:11.777Z,1.80
2023-08-11T16:56:39.843Z,1.60
2023-08-11T16:59:08.007Z,1.60
2023-08-11T17:01:36.049Z,1.40
2023-08-11T17:04:04.557Z,2.50
2023-08-11T17:06:32.679Z,5.20
2023-08-11T17:09:01.425Z,8.00
2023-08-11T17:11:29.657Z,6.30
2023-08-11T17:13:57.975Z,4.90
2023-08-11T17:16:26.159Z,4.10
2023-08-11T17:18:54.369Z,4.40
2023-08-11T17:21:24.623Z,4.40
2023-08-11T17:23:58.142Z,3.80
2023-08-11T17:26:27.561Z,4.80
2023-08-11T17:28:56.886Z,4.90
2023-08-11T17:31:25.199Z,4.40
2023-08-11T17:33:53.606Z,4.00
2023-08-11T17:36:27.017Z,3.90
2023-08-11T17:38:56.233Z,3.90
2023-08-11T17:41:26.021Z,3.80
2023-08-11T17:43:54.330Z,3.70
2023-08-11T17:46:22.620Z,3.70
2023-08-11T17:48:53.543Z,3.30
2023-08-11T17:51:25.166Z,2.70
2023-08-11T17:54:08.210Z,3.10
2023-08-11T17:56:38.536Z,3.00
2023-08-11T17:59:07.204Z,4.10
2023-08-11T18:01:35.354Z,3.20
2023-08-11T18:04:07.438Z,3.70
2023-08-11T18:06:36.857Z,3.10
2023-08-11T18:09:05.287Z,3.80
2023-08-11T18:11:35.283Z,3.60
2023-08-11T18:14:12.481Z,3.60
2023-08-11T18:28:00.809Z,8.20
2023-08-11T18:30:29.482Z,7.00
2023-08-11T18:32:57.929Z,5.90
2023-08-11T18:35:26.989Z,6.40
2023-08-11T18:37:55.298Z,4.20
2023-08-11T18:40:24.072Z,3.20
2023-08-11T18:42:52.369Z,4.40
2023-08-11T18:45:20.776Z,3.70
2023-08-11T18:47:50.824Z,36.30
2023-08-11T18:50:19.570Z,93.40
2023-08-11T18:52:49.783Z,118.30
2023-08-11T18:55:19.301Z,102.00
2023-08-11T18:57:48.134Z,75.10
2023-08-11T19:00:17.537Z,43.80
2023-08-11T19:02:46.832Z,24.20
2023-08-11T19:05:16.202Z,9.90
2023-08-11T19:07:45.450Z,8.40
2023-08-11T19:10:14.990Z,7.10
2023-08-11T19:12:44.649Z,6.50
2023-08-11T19:15:14.032Z,4.90
2023-08-11T19:17:44.476Z,3.00
2023-08-11T19:20:14.192Z,2.30
2023-08-11T19:22:43.814Z,1.90
2023-08-11T19:25:13.340Z,2.00
2023-08-11T19:27:42.817Z,2.00
2023-08-11T19:30:12.607Z,1.90
2023-08-11T19:32:41.718Z,1.90
2023-08-11T19:35:13.940Z,2.10
2023-08-11T19:37:43.027Z,2.00
2023-08-11T19:40:12.707Z,1.80
2023-08-11T19:42:41.692Z,2.40
2023-08-11T19:45:12.329Z,2.10
2023-08-11T19:47:41.578Z,1.80
2023-08-11T19:50:11.341Z,1.80
2023-08-11T19:52:43.676Z,1.90
2023-08-11T19:55:12.647Z,2.00
2023-08-11T19:57:41.125Z,1.60
2023-08-11T20:00:10.390Z,1.70
2023-08-11T20:02:44.467Z,1.80
2023-08-11T20:05:13.236Z,1.80
2023-08-11T20:07:44.098Z,1.70
2023-08-11T20:10:17.919Z,2.10
2023-08-11T20:12:49.878Z,1.90
2023-08-11T20:15:18.566Z,1.70
2023-08-11T20:17:50.210Z,1.70
2023-08-11T20:20:20.418Z,2.20
2023-08-11T20:22:49.239Z,2.10
2023-08-11T20:25:18.648Z,2.30
2023-08-11T20:27:48.977Z,2.40
2023-08-11T20:30:17.401Z,3.00
2023-08-11T20:33:23.766Z,3.00
2023-08-11T20:35:50.631Z,3.00
2023-08-11T20:38:17.345Z,2.40
2023-08-11T20:40:47.551Z,1.70
2023-08-11T20:43:14.308Z,2.10
2023-08-11T20:45:41.131Z,1.90
2023-08-11T20:48:07.994Z,2.10
2023-08-11T20:50:36.464Z,2.30
2023-08-11T20:53:03.284Z,2.60
2023-08-11T20:55:30.072Z,2.10
2023-08-11T20:57:56.899Z,2.10
2023-08-11T21:00:23.780Z,1.90
2023-08-11T21:09:57.339Z,2.90
2023-08-11T21:12:26.378Z,2.10
2023-08-11T21:14:54.631Z,2.10
2023-08-11T21:17:22.916Z,2.60
2023-08-11T21:19:51.240Z,2.50
2023-08-11T21:22:19.262Z,2.20
2023-08-11T21:24:47.288Z,2.00
2023-08-11T21:27:15.862Z,2.30
2023-08-11T21:29:44.156Z,2.40
2023-08-11T21:32:12.171Z,2.60
2023-08-11T21:34:40.184Z,2.60
2023-08-11T21:37:08.330Z,2.40
2023-08-11T21:39:40.319Z,2.50
2023-08-11T21:42:13.527Z,2.50
2023-08-11T21:44:41.590Z,2.00
2023-08-11T21:47:09.815Z,1.70
2023-08-11T21:49:38.102Z,2.00
2023-08-11T21:52:08.507Z,2.50
2023-08-11T21:54:38.742Z,2.30
2023-08-11T21:57:09.036Z,2.00
2023-08-11T21:59:42.093Z,2.30
2023-08-11T22:02:10.429Z,2.10
2023-08-11T22:04:40.937Z,2.20
2023-08-11T22:07:09.392Z,1.70
2023-08-11T22:09:37.887Z,2.30
2023-08-11T22:12:06.648Z,1.90
2023-08-11T22:14:35.036Z,2.00
2023-08-11T22:17:03.312Z,2.00
2023-08-11T22:19:31.475Z,2.10
2023-08-11T22:21:59.773Z,1.60
2023-08-11T22:24:39.796Z,1.60
2023-08-11T22:27:11.211Z,1.90
2023-08-11T22:29:40.093Z,2.00
2023-08-11T22:32:08.203Z,1.60
2023-08-11T22:34:36.257Z,2.20
2023-08-11T22:37:04.536Z,2.00
2023-08-11T22:39:32.537Z,2.00
2023-08-11T22:42:00.840Z,2.00
2023-08-11T22:44:28.891Z,2.20
2023-08-11T22:46:56.894Z,2.10
2023-08-11T22:49:24.914Z,2.30
2023-08-11T22:51:52.875Z,1.90
2023-08-11T22:54:21.653Z,2.10
2023-08-11T22:56:49.785Z,1.90
2023-08-11T22:59:19.964Z,1.80
2023-08-11T23:01:48.290Z,2.00
2023-08-11T23:04:16.404Z,1.90
2023-08-11T23:06:44.482Z,2.00
2023-08-11T23:09:12.530Z,2.10
2023-08-11T23:11:40.751Z,1.90
2023-08-11T23:14:09.003Z,1.50
2023-08-11T23:16:37.372Z,2.20
2023-08-11T23:19:06.773Z,2.40
2023-08-11T23:21:34.936Z,2.00
2023-08-11T23:24:03.075Z,1.80
2023-08-11T23:26:31.175Z,2.00
2023-08-11T23:28:59.263Z,2.00
2023-08-11T23:31:27.430Z,2.10
2023-08-11T23:33:55.675Z,2.40
2023-08-11T23:36:23.803Z,2.20
2023-08-11T23:38:51.952Z,2.50
2023-08-11T23:41:20.180Z,2.10
2023-08-11T23:43:48.359Z,2.20
2023-08-11T23:46:16.482Z,2.30
2023-08-11T23:48:44.620Z,2.70
2023-08-11T23:51:12.760Z,2.30
2023-08-11T23:53:40.976Z,2.50
2023-08-11T23:56:09.697Z,2.50
2023-08-11T23:58:37.767Z,2.20
